createdAt,value
2019-05-02T00:02:28.809Z,9.56
2019-05-02T00:04:55.905Z,9.56
2019-05-02T00:07:21.897Z,9.56
2019-05-02T00:09:50.162Z,9.31
2019-05-02T00:12:16.979Z,9.38
2019-05-02T00:14:42.905Z,9.38
2019-05-02T00:17:08.727Z,9.44
2019-05-02T00:19:34.581Z,9.31
2019-05-02T00:22:00.564Z,9.44
2019-05-02T00:24:26.405Z,9.31
2019-05-02T00:26:56.038Z,9.31
2019-05-02T00:29:23.842Z,9.38
2019-05-02T00:31:48.881Z,9.38
2019-05-02T00:34:14.911Z,9.13
2019-05-02T00:36:40.743Z,9.13
2019-05-02T00:39:09.644Z,9.13
2019-05-02T00:41:38.530Z,9.19
2019-05-02T00:44:06.082Z,9.06
2019-05-02T00:46:30.270Z,9.19
2019-05-02T00:48:59.653Z,8.94
2019-05-02T00:51:27.961Z,9.06
2019-05-02T00:53:54.015Z,9.00
2019-05-02T00:56:19.883Z,9.00
2019-05-02T00:58:45.752Z,9.25
2019-05-02T01:01:29.560Z,9.06
2019-05-02T01:04:01.071Z,8.94
2019-05-02T01:06:27.027Z,8.94
2019-05-02T01:08:52.855Z,9.00
2019-05-02T01:11:18.829Z,9.13
2019-05-02T01:13:44.662Z,8.88
2019-05-02T01:16:10.509Z,8.94
2019-05-02T01:18:37.289Z,9.13
2019-05-02T01:21:04.231Z,9.06
2019-05-02T01:23:30.149Z,8.94
2019-05-02T01:25:56.010Z,8.88
2019-05-02T01:28:23.766Z,9.00
2019-05-02T01:31:00.272Z,8.88
2019-05-02T01:33:46.159Z,8.94
2019-05-02T01:36:13.898Z,8.88
2019-05-02T01:38:41.663Z,8.75
2019-05-02T01:41:07.480Z,8.88
2019-05-02T01:43:33.329Z,9.00
2019-05-02T01:45:59.198Z,8.81
2019-05-02T01:48:25.058Z,8.75
2019-05-02T01:50:50.899Z,9.06
2019-05-02T01:53:16.780Z,9.06
2019-05-02T01:55:42.624Z,9.06
2019-05-02T01:58:08.476Z,8.94
2019-05-02T02:00:34.308Z,8.81
2019-05-02T02:03:04.227Z,8.81
2019-05-02T02:05:32.249Z,8.88
2019-05-02T02:07:57.451Z,8.88
2019-05-02T02:10:23.712Z,8.81
2019-05-02T02:13:02.897Z,8.88
2019-05-02T02:15:17.284Z,8.69
2019-05-02T02:17:46.840Z,8.69
2019-05-02T02:20:22.164Z,8.88
2019-05-02T02:22:49.906Z,8.94
2019-05-02T02:25:32.326Z,8.81
2019-05-02T02:27:59.721Z,8.75
2019-05-02T02:30:26.858Z,8.75
2019-05-02T02:32:52.832Z,8.75
2019-05-02T02:35:18.669Z,8.75
2019-05-02T02:37:51.937Z,8.69
2019-05-02T02:40:12.496Z,8.75
2019-05-02T02:42:38.340Z,8.94
2019-05-02T02:45:12.900Z,8.81
2019-05-02T02:47:35.208Z,8.81
2019-05-02T02:50:02.446Z,8.81
2019-05-02T02:52:28.984Z,8.75
2019-05-02T02:54:54.822Z,8.81
2019-05-02T02:57:26.684Z,8.75
2019-05-02T02:59:48.494Z,8.81
2019-05-02T03:02:14.349Z,8.75
2019-05-02T03:04:43.925Z,8.88
2019-05-02T03:07:08.032Z,8.69
2019-05-02T03:09:33.903Z,8.75
2019-05-02T03:12:20.024Z,8.63
2019-05-02T03:14:49.466Z,8.88
2019-05-02T03:17:20.600Z,8.75
2019-05-02T03:19:43.282Z,8.56
2019-05-02T03:22:09.159Z,8.56
2019-05-02T03:24:36.670Z,8.75
2019-05-02T03:27:02.895Z,8.88
2019-05-02T03:29:39.769Z,8.75
2019-05-02T03:32:12.256Z,8.63
2019-05-02T03:34:24.265Z,8.69
2019-05-02T03:36:50.231Z,8.75
2019-05-02T03:39:17.472Z,8.75
2019-05-02T03:41:43.544Z,8.69
2019-05-02T03:44:11.539Z,8.88
2019-05-02T03:46:37.165Z,8.75
2019-05-02T03:49:07.387Z,8.81
2019-05-02T03:51:30.937Z,9.00
2019-05-02T03:54:05.795Z,8.81
2019-05-02T03:56:24.610Z,8.69
2019-05-02T03:58:56.362Z,8.81
2019-05-02T04:01:18.604Z,8.69
2019-05-02T04:03:45.051Z,8.69
2019-05-02T04:06:13.893Z,8.88
2019-05-02T04:08:39.908Z,8.75
2019-05-02T04:11:15.547Z,8.88
2019-05-02T04:13:41.693Z,8.94
2019-05-02T04:16:14.755Z,8.81
2019-05-02T04:18:36.313Z,8.81
2019-05-02T04:21:02.250Z,8.75
2019-05-02T04:23:29.866Z,8.69
2019-05-02T04:25:56.943Z,8.81
2019-05-02T04:28:22.936Z,8.69
2019-05-02T04:30:51.202Z,8.75
2019-05-02T04:33:16.491Z,8.69
2019-05-02T04:35:42.421Z,8.63
2019-05-02T04:38:19.435Z,8.63
2019-05-02T04:40:41.798Z,8.69
2019-05-02T04:43:08.140Z,8.69
2019-05-02T04:45:50.865Z,8.88
2019-05-02T04:48:03.795Z,8.81
2019-05-02T04:50:29.435Z,8.94
2019-05-02T04:52:55.039Z,8.88
2019-05-02T04:55:28.134Z,8.81
2019-05-02T04:57:50.957Z,8.94
2019-05-02T05:00:21.140Z,9.00
2019-05-02T05:02:48.433Z,8.81
2019-05-02T05:05:19.446Z,8.81
2019-05-02T05:07:46.087Z,8.94
2019-05-02T05:10:10.418Z,8.88
2019-05-02T05:12:38.005Z,8.81
2019-05-02T05:15:04.897Z,8.88
2019-05-02T05:17:34.077Z,8.88
2019-05-02T05:20:00.147Z,8.81
2019-05-02T05:22:28.268Z,8.94
2019-05-02T05:25:01.807Z,9.00
2019-05-02T05:27:27.673Z,8.88
2019-05-02T05:29:58.602Z,9.00
2019-05-02T05:32:21.259Z,8.81
2019-05-02T05:34:47.844Z,9.00
2019-05-02T05:37:13.863Z,8.88
2019-05-02T05:39:43.173Z,8.81
2019-05-02T05:42:10.367Z,8.94
2019-05-02T05:44:35.323Z,8.88
2019-05-02T05:47:01.176Z,9.00
2019-05-02T05:49:28.236Z,9.00
2019-05-02T05:51:59.521Z,8.94
2019-05-02T05:54:22.013Z,9.13
2019-05-02T05:56:48.157Z,9.00
2019-05-02T05:59:14.087Z,9.00
2019-05-02T06:01:39.919Z,9.06
2019-05-02T06:04:07.936Z,9.06
2019-05-02T06:06:33.643Z,9.13
2019-05-02T06:08:59.573Z,9.00
2019-05-02T06:11:25.453Z,9.06
2019-05-02T06:13:51.333Z,9.19
2019-05-02T06:16:17.219Z,9.31
2019-05-02T06:18:43.724Z,9.31
2019-05-02T06:21:10.786Z,9.31
2019-05-02T06:23:41.210Z,9.31
2019-05-02T06:26:07.801Z,9.19
2019-05-02T06:28:36.407Z,9.25
2019-05-02T06:31:02.218Z,9.44
2019-05-02T06:33:30.538Z,9.44
2019-05-02T06:36:01.006Z,9.44
2019-05-02T06:38:23.399Z,9.50
2019-05-02T06:40:49.576Z,9.44
2019-05-02T06:43:15.692Z,9.56
2019-05-02T06:45:41.563Z,9.56
2019-05-02T06:48:07.527Z,9.63
2019-05-02T06:50:38.672Z,9.63
2019-05-02T06:53:04.456Z,9.69
2019-05-02T06:55:36.011Z,9.81
2019-05-02T06:58:02.035Z,9.88
2019-05-02T07:00:35.387Z,9.75
2019-05-02T07:02:52.258Z,9.75
2019-05-02T07:05:18.101Z,10.00
2019-05-02T07:07:44.139Z,9.81
2019-05-02T07:10:10.263Z,9.81
2019-05-02T07:12:36.148Z,9.81
2019-05-02T07:15:08.299Z,9.81
2019-05-02T07:17:40.346Z,9.75
2019-05-02T07:20:08.024Z,9.94
2019-05-02T07:22:38.901Z,9.94
2019-05-02T07:25:07.019Z,10.00
2019-05-02T07:27:33.610Z,9.88
2019-05-02T07:29:59.670Z,9.88
2019-05-02T07:32:26.776Z,9.94
2019-05-02T07:34:52.815Z,10.00
2019-05-02T07:37:18.706Z,10.13
2019-05-02T07:39:44.693Z,10.19
2019-05-02T07:42:10.542Z,9.94
2019-05-02T07:44:36.724Z,10.06
2019-05-02T07:47:04.593Z,10.00
2019-05-02T07:49:32.125Z,10.06
2019-05-02T07:51:58.978Z,10.19
2019-05-02T07:54:26.637Z,10.06
2019-05-02T07:56:53.363Z,10.19
2019-05-02T07:59:23.312Z,10.19
2019-05-02T08:01:49.653Z,10.13
2019-05-02T08:04:15.314Z,10.13
2019-05-02T08:06:44.609Z,10.19
2019-05-02T08:09:09.298Z,10.25
2019-05-02T08:11:37.182Z,10.25
2019-05-02T08:14:03.850Z,10.31
2019-05-02T08:16:29.692Z,10.31
2019-05-02T08:18:55.622Z,10.31
2019-05-02T08:21:21.463Z,10.25
2019-05-02T08:23:47.320Z,10.31
2019-05-02T08:26:16.303Z,10.25
2019-05-02T08:28:46.992Z,10.31
2019-05-02T08:31:13.475Z,10.38
2019-05-02T08:33:41.334Z,10.38
2019-05-02T08:36:07.215Z,10.44
2019-05-02T08:38:33.137Z,10.38
2019-05-02T08:40:59.076Z,10.38
2019-05-02T08:43:24.951Z,10.50
2019-05-02T08:45:50.843Z,10.50
2019-05-02T08:48:16.707Z,10.50
2019-05-02T08:50:42.655Z,10.63
2019-05-02T08:53:08.510Z,10.50
2019-05-02T08:55:34.360Z,10.69
2019-05-02T08:58:00.310Z,10.69
2019-05-02T09:00:26.142Z,10.75
2019-05-02T09:02:52.019Z,10.75
2019-05-02T09:05:17.891Z,10.88
2019-05-02T09:07:46.678Z,10.81
2019-05-02T09:10:12.631Z,10.88
2019-05-02T09:12:42.045Z,10.81
2019-05-02T09:15:06.808Z,10.94
2019-05-02T09:17:38.287Z,10.88
2019-05-02T09:20:05.093Z,10.94
2019-05-02T09:22:28.263Z,10.94
2019-05-02T09:24:54.262Z,11.06
2019-05-02T09:27:22.291Z,11.06
2019-05-02T09:29:48.032Z,11.19
2019-05-02T09:32:17.214Z,11.19
2019-05-02T09:34:42.405Z,11.12
2019-05-02T09:37:09.536Z,11.25
2019-05-02T09:39:36.629Z,11.25
2019-05-02T09:42:06.766Z,11.31
2019-05-02T09:44:30.615Z,11.19
2019-05-02T09:46:57.127Z,11.38
2019-05-02T09:49:23.226Z,11.38
2019-05-02T09:51:50.286Z,11.38
2019-05-02T09:54:16.954Z,11.44
2019-05-02T09:56:43.127Z,11.56
2019-05-02T09:59:25.868Z,11.63
2019-05-02T10:01:39.304Z,11.56
2019-05-02T10:04:07.446Z,11.44
2019-05-02T10:06:45.743Z,11.44
2019-05-02T10:09:12.185Z,11.38
2019-05-02T10:11:38.165Z,11.44
2019-05-02T10:14:04.213Z,11.44
2019-05-02T10:16:31.922Z,11.50
2019-05-02T10:19:00.281Z,11.50
2019-05-02T10:21:26.820Z,11.56
2019-05-02T10:23:59.316Z,11.50
2019-05-02T10:26:24.427Z,11.56
2019-05-02T10:28:51.195Z,11.63
2019-05-02T10:31:18.734Z,11.63
2019-05-02T10:33:44.625Z,11.63
2019-05-02T10:36:11.920Z,11.63
2019-05-02T10:38:38.395Z,11.75
2019-05-02T10:41:04.928Z,11.75
2019-05-02T10:43:32.791Z,11.69
2019-05-02T10:46:01.789Z,11.75
2019-05-02T10:48:28.921Z,11.88
2019-05-02T10:51:09.022Z,11.81
2019-05-02T10:53:34.857Z,11.75
2019-05-02T10:56:02.628Z,11.88
2019-05-02T10:58:33.956Z,11.75
2019-05-02T11:00:58.292Z,11.88
2019-05-02T11:03:26.127Z,11.88
2019-05-02T11:06:05.531Z,11.94
2019-05-02T11:08:27.919Z,11.88
2019-05-02T11:10:53.815Z,11.75
2019-05-02T11:13:27.135Z,11.75
2019-05-02T11:16:12.410Z,11.81
2019-05-02T11:18:56.972Z,11.75
2019-05-02T11:21:23.487Z,11.81
2019-05-02T11:23:49.512Z,11.81
2019-05-02T11:26:21.559Z,11.88
2019-05-02T11:28:43.245Z,11.94
2019-05-02T11:31:10.226Z,11.94
2019-05-02T11:33:36.867Z,12.00
2019-05-02T11:36:02.750Z,12.00
2019-05-02T11:38:29.023Z,12.00
2019-05-02T11:40:55.101Z,12.00
2019-05-02T11:43:22.357Z,11.94
2019-05-02T11:45:49.173Z,12.06
2019-05-02T11:48:15.063Z,12.13
2019-05-02T11:50:42.243Z,12.06
2019-05-02T11:53:22.320Z,12.06
2019-05-02T11:55:36.043Z,12.00
2019-05-02T11:58:07.900Z,12.00
2019-05-02T12:00:29.676Z,12.06
2019-05-02T12:03:07.596Z,12.13
2019-05-02T12:05:35.858Z,12.19
2019-05-02T12:08:08.022Z,12.13
2019-05-02T12:10:32.986Z,12.13
2019-05-02T12:12:58.778Z,12.19
2019-05-02T12:15:25.319Z,12.25
2019-05-02T12:17:51.669Z,12.31
2019-05-02T12:20:17.607Z,12.31
2019-05-02T12:22:44.827Z,12.31
2019-05-02T12:25:12.629Z,12.37
2019-05-02T12:27:38.606Z,12.37
2019-05-02T12:30:04.777Z,12.31
2019-05-02T12:32:30.624Z,12.56
2019-05-02T12:34:56.489Z,12.50
2019-05-02T12:37:23.135Z,12.31
2019-05-02T12:39:48.985Z,12.37
2019-05-02T12:42:15.138Z,12.37
2019-05-02T12:44:42.602Z,12.37
2019-05-02T12:47:08.865Z,12.31
2019-05-02T12:49:34.795Z,12.50
2019-05-02T12:52:01.723Z,12.37
2019-05-02T12:54:32.518Z,12.50
2019-05-02T12:56:58.379Z,12.50
2019-05-02T12:59:26.679Z,12.44
2019-05-02T13:01:52.736Z,12.75
2019-05-02T13:04:18.667Z,12.63
2019-05-02T13:06:44.519Z,12.63
2019-05-02T13:09:12.751Z,12.56
2019-05-02T13:11:46.832Z,12.75
2019-05-02T13:14:18.932Z,12.69
2019-05-02T13:16:42.891Z,12.69
2019-05-02T13:19:08.281Z,12.75
2019-05-02T13:21:58.042Z,12.69
2019-05-02T13:24:29.929Z,12.81
2019-05-02T13:26:59.579Z,12.69
2019-05-02T13:29:23.895Z,12.75
2019-05-02T13:31:52.360Z,12.81
2019-05-02T13:34:22.050Z,12.94
2019-05-02T13:36:51.774Z,12.88
2019-05-02T13:39:36.758Z,12.75
2019-05-02T13:42:03.109Z,12.81
2019-05-02T13:44:36.839Z,12.94
2019-05-02T13:47:04.371Z,12.94
2019-05-02T13:49:32.307Z,12.88
2019-05-02T13:51:58.233Z,12.81
2019-05-02T13:54:24.063Z,12.81
2019-05-02T13:56:52.414Z,12.81
2019-05-02T13:59:19.257Z,12.94
2019-05-02T14:01:46.094Z,13.00
2019-05-02T14:04:14.971Z,12.94
2019-05-02T14:06:42.013Z,13.13
2019-05-02T14:09:22.464Z,13.25
2019-05-02T14:11:52.767Z,13.25
2019-05-02T14:14:18.628Z,13.19
2019-05-02T14:16:44.471Z,13.25
2019-05-02T14:19:12.458Z,13.19
2019-05-02T14:21:38.125Z,13.19
2019-05-02T14:24:03.957Z,13.19
2019-05-02T14:26:31.146Z,13.19
2019-05-02T14:28:58.999Z,13.13
2019-05-02T14:31:24.929Z,13.19
2019-05-02T14:34:09.362Z,13.19
2019-05-02T14:36:35.207Z,13.13
2019-05-02T14:39:02.756Z,13.06
2019-05-02T14:41:29.986Z,13.19
2019-05-02T14:43:56.931Z,13.13
2019-05-02T14:46:29.047Z,13.19
2019-05-02T14:48:52.489Z,13.25
2019-05-02T14:51:22.864Z,13.19
2019-05-02T14:53:47.494Z,13.38
2019-05-02T14:56:27.511Z,13.38
2019-05-02T14:58:57.212Z,13.31
2019-05-02T15:01:26.107Z,13.31
2019-05-02T15:03:52.836Z,13.38
2019-05-02T15:09:52.557Z,13.25
2019-05-02T15:12:19.091Z,13.25
2019-05-02T15:14:49.892Z,13.31
2019-05-02T15:17:12.991Z,13.19
2019-05-02T15:19:39.243Z,13.31
2019-05-02T15:22:07.446Z,13.31
2019-05-02T15:24:37.471Z,13.38
2019-05-02T15:27:03.996Z,13.38
2019-05-02T15:29:32.070Z,13.38
2019-05-02T15:32:05.833Z,13.44
2019-05-02T15:34:48.571Z,13.44
2019-05-02T15:37:16.905Z,13.44
2019-05-02T15:42:12.203Z,13.38
2019-05-02T15:44:38.107Z,13.44
2019-05-02T15:47:06.907Z,13.44
2019-05-02T15:49:36.715Z,13.38
2019-05-02T15:52:03.148Z,13.38
2019-05-02T15:54:29.119Z,13.38
2019-05-02T15:57:05.571Z,13.38
2019-05-02T15:59:32.686Z,13.44
2019-05-02T16:02:03.164Z,13.44
2019-05-02T16:04:32.058Z,13.38
2019-05-02T16:07:00.358Z,13.38
2019-05-02T16:09:25.867Z,13.50
2019-05-02T16:11:53.255Z,14.19
2019-05-02T16:14:19.711Z,14.63
2019-05-02T16:16:45.971Z,14.94
2019-05-02T16:19:14.719Z,15.38
2019-05-02T16:21:42.621Z,14.50
2019-05-02T16:24:18.023Z,14.13
2019-05-02T16:26:46.772Z,14.06
2019-05-02T16:29:19.541Z,13.75
2019-05-02T16:32:03.596Z,13.75
2019-05-02T16:34:33.841Z,13.62
2019-05-02T16:37:06.968Z,13.56
2019-05-02T16:39:32.957Z,13.44
2019-05-02T16:41:59.918Z,13.38
2019-05-02T16:44:25.949Z,13.44
2019-05-02T16:46:52.155Z,13.44
2019-05-02T16:49:19.864Z,13.56
2019-05-02T16:51:46.007Z,13.56
2019-05-02T16:54:12.792Z,13.62
2019-05-02T16:56:45.990Z,13.81
2019-05-02T16:59:12.709Z,13.62
2019-05-02T17:01:38.838Z,13.56
2019-05-02T17:04:06.727Z,13.56
2019-05-02T17:06:34.629Z,13.50
2019-05-02T17:09:03.883Z,13.44
2019-05-02T17:11:37.335Z,13.44
2019-05-02T17:14:06.983Z,13.44
2019-05-02T17:16:31.859Z,13.38
2019-05-02T17:18:58.127Z,13.44
2019-05-02T17:21:26.770Z,13.38
2019-05-02T17:23:52.422Z,13.50
2019-05-02T17:26:18.730Z,13.44
2019-05-02T17:28:47.054Z,13.44
2019-05-02T17:31:19.584Z,13.44
2019-05-02T17:33:41.726Z,13.50
2019-05-02T17:36:07.877Z,13.62
2019-05-02T17:38:34.125Z,13.44
2019-05-02T17:41:04.898Z,13.56
2019-05-02T17:43:28.223Z,13.56
2019-05-02T17:45:56.248Z,13.38
2019-05-02T17:48:22.076Z,13.44
2019-05-02T17:51:05.077Z,13.44
2019-05-02T17:53:33.848Z,13.31
2019-05-02T17:55:58.662Z,13.31
2019-05-02T17:58:24.547Z,13.25
2019-05-02T18:00:56.962Z,13.19
2019-05-02T18:03:24.241Z,13.25
2019-05-02T18:05:48.154Z,13.19
2019-05-02T18:08:14.827Z,13.13
2019-05-02T18:10:41.912Z,13.19
2019-05-02T18:13:07.953Z,13.19
2019-05-02T18:15:34.834Z,13.19
2019-05-02T18:18:06.462Z,13.00
2019-05-02T18:20:29.389Z,13.00
2019-05-02T18:22:55.258Z,13.06
2019-05-02T18:25:25.142Z,12.94
2019-05-02T18:27:49.234Z,13.00
2019-05-02T18:30:24.924Z,12.94
2019-05-02T18:32:46.283Z,12.94
2019-05-02T18:35:12.211Z,12.94
2019-05-02T18:37:45.053Z,12.88
2019-05-02T18:40:05.970Z,12.94
2019-05-02T18:42:32.003Z,13.00
2019-05-02T18:44:58.073Z,12.94
2019-05-02T18:47:24.772Z,13.00
2019-05-02T18:49:53.843Z,13.00
2019-05-02T18:52:18.690Z,12.94
2019-05-02T18:54:47.393Z,12.94
2019-05-02T18:57:12.417Z,12.94
2019-05-02T18:59:38.363Z,13.06
2019-05-02T19:02:04.208Z,13.00
2019-05-02T19:04:36.604Z,13.00
2019-05-02T19:06:57.858Z,12.94
2019-05-02T19:09:29.873Z,13.00
2019-05-02T19:11:52.384Z,13.00
2019-05-02T19:14:24.541Z,13.00
2019-05-02T19:16:48.437Z,12.94
2019-05-02T19:19:14.355Z,13.00
2019-05-02T19:21:40.210Z,12.94
2019-05-02T19:24:06.475Z,13.06
2019-05-02T19:26:32.688Z,12.94
2019-05-02T19:29:03.481Z,13.00
2019-05-02T19:31:36.668Z,13.13
2019-05-02T19:34:02.385Z,13.00
2019-05-02T19:36:28.542Z,13.00
2019-05-02T19:38:57.380Z,13.06
2019-05-02T19:41:22.372Z,13.06
2019-05-02T19:43:49.748Z,13.13
2019-05-02T19:46:17.005Z,13.06
2019-05-02T19:48:46.828Z,13.00
2019-05-02T19:51:18.669Z,13.06
2019-05-02T19:53:42.623Z,13.06
2019-05-02T19:56:08.729Z,13.06
2019-05-02T19:58:36.613Z,13.13
2019-05-02T20:01:02.838Z,13.13
2019-05-02T20:03:28.712Z,13.00
2019-05-02T20:05:56.620Z,13.00
2019-05-02T20:08:24.582Z,13.06
2019-05-02T20:10:56.758Z,12.94
2019-05-02T20:13:20.306Z,12.88
2019-05-02T20:15:49.453Z,12.88
2019-05-02T20:18:15.377Z,12.81
2019-05-02T20:20:48.539Z,12.88
2019-05-02T20:23:17.903Z,12.81
2019-05-02T20:25:42.670Z,12.63
2019-05-02T20:28:08.622Z,12.69
2019-05-02T20:30:34.555Z,12.63
2019-05-02T20:33:02.117Z,12.56
2019-05-02T20:35:28.189Z,12.50
2019-05-02T20:37:54.291Z,12.37
2019-05-02T20:40:25.748Z,12.31
2019-05-02T20:42:52.741Z,12.31
2019-05-02T20:45:18.778Z,12.13
2019-05-02T20:47:44.612Z,12.00
2019-05-02T20:50:12.092Z,12.19
2019-05-02T20:52:38.127Z,11.94
2019-05-02T20:55:05.451Z,11.88
2019-05-02T20:57:31.785Z,11.88
2019-05-02T20:59:57.766Z,11.75
2019-05-02T21:02:23.619Z,11.88
2019-05-02T21:04:49.591Z,11.88
2019-05-02T21:07:21.785Z,11.63
2019-05-02T21:09:52.789Z,11.63
2019-05-02T21:12:18.911Z,11.63
2019-05-02T21:14:44.865Z,11.75
2019-05-02T21:17:12.698Z,11.50
2019-05-02T21:19:38.483Z,11.63
2019-05-02T21:22:08.145Z,11.44
2019-05-02T21:24:33.992Z,11.31
2019-05-02T21:27:01.783Z,11.38
2019-05-02T21:29:27.605Z,11.50
2019-05-02T21:31:53.511Z,11.31
2019-05-02T21:34:19.327Z,11.31
2019-05-02T21:36:45.156Z,11.25
2019-05-02T21:39:11.912Z,11.31
2019-05-02T21:41:37.881Z,11.25
2019-05-02T21:44:03.739Z,11.44
2019-05-02T21:46:31.607Z,11.12
2019-05-02T21:48:57.318Z,11.06
2019-05-02T21:51:31.939Z,11.06
2019-05-02T21:53:59.866Z,11.12
2019-05-02T21:56:27.683Z,11.00
2019-05-02T21:59:06.716Z,10.94
2019-05-02T22:01:35.271Z,10.94
2019-05-02T22:04:02.261Z,10.94
2019-05-02T22:06:28.331Z,10.88
2019-05-02T22:08:54.291Z,10.88
2019-05-02T22:11:22.507Z,10.88
2019-05-02T22:13:48.241Z,10.88
2019-05-02T22:16:14.086Z,10.88
2019-05-02T22:18:40.076Z,10.81
2019-05-02T22:21:06.057Z,10.81
2019-05-02T22:23:33.949Z,10.75
2019-05-02T22:26:01.984Z,10.88
2019-05-02T22:28:27.731Z,10.88
2019-05-02T22:30:54.578Z,10.94
2019-05-02T22:33:22.157Z,10.94
2019-05-02T22:35:48.177Z,10.94
2019-05-02T22:38:22.218Z,10.88
2019-05-02T22:40:50.105Z,10.88
2019-05-02T22:43:15.934Z,10.81
2019-05-02T22:45:43.716Z,10.94
2019-05-02T22:48:11.482Z,10.81
2019-05-02T22:50:37.317Z,10.69
2019-05-02T22:53:03.257Z,10.81
2019-05-02T22:55:29.121Z,10.81
2019-05-02T22:57:54.952Z,10.75
2019-05-02T23:00:21.642Z,10.75
2019-05-02T23:02:47.629Z,10.75
2019-05-02T23:05:13.662Z,10.69
2019-05-02T23:07:39.516Z,10.56
2019-05-02T23:10:05.966Z,10.69
2019-05-02T23:12:31.973Z,10.56
2019-05-02T23:14:57.946Z,10.56
2019-05-02T23:17:23.830Z,10.50
2019-05-02T23:19:49.675Z,10.38
2019-05-02T23:22:15.516Z,10.44
2019-05-02T23:24:43.324Z,10.38
2019-05-02T23:27:13.574Z,10.31
2019-05-02T23:29:39.451Z,10.25
2019-05-02T23:32:05.370Z,10.25
2019-05-02T23:34:32.386Z,10.31
2019-05-02T23:36:58.358Z,10.13
2019-05-02T23:39:24.286Z,10.25
2019-05-02T23:41:50.151Z,10.19
2019-05-02T23:44:16.002Z,10.00
2019-05-02T23:46:42.363Z,10.00
2019-05-02T23:49:08.483Z,10.00
2019-05-02T23:51:34.304Z,9.88
2019-05-02T23:54:01.920Z,9.88
2019-05-02T23:56:27.887Z,9.81
2019-05-02T23:58:53.811Z,9.81
